createdAt,value
2017-06-22T00:00:46.462Z,8.07
2017-06-22T00:03:14.054Z,9.60
2017-06-22T00:05:41.614Z,8.80
2017-06-22T00:08:09.178Z,10.00
2017-06-22T00:10:36.744Z,8.90
2017-06-22T00:13:04.242Z,9.00
2017-06-22T00:15:31.957Z,8.57
2017-06-22T00:17:59.518Z,8.27
2017-06-22T00:20:27.174Z,8.20
2017-06-22T00:22:54.799Z,8.47
2017-06-22T00:25:22.299Z,8.40
2017-06-22T00:27:49.789Z,7.80
2017-06-22T00:30:17.318Z,8.83
2017-06-22T00:32:44.815Z,8.90
2017-06-22T00:35:12.351Z,8.87
2017-06-22T00:37:39.851Z,7.07
2017-06-22T00:40:07.347Z,7.37
2017-06-22T00:42:35.019Z,7.60
2017-06-22T00:45:02.518Z,7.30
2017-06-22T00:47:30.030Z,7.50
2017-06-22T00:49:57.695Z,8.10
2017-06-22T00:52:25.247Z,8.20
2017-06-22T00:54:52.814Z,8.37
2017-06-22T00:57:20.350Z,8.30
2017-06-22T00:59:48.659Z,7.50
2017-06-22T01:02:16.213Z,7.77
2017-06-22T01:04:43.974Z,7.93
2017-06-22T01:07:11.470Z,7.07
2017-06-22T01:09:38.998Z,7.00
2017-06-22T01:12:06.559Z,8.67
2017-06-22T01:14:34.118Z,7.93
2017-06-22T01:17:01.614Z,7.40
2017-06-22T01:19:29.135Z,6.90
2017-06-22T01:21:56.659Z,8.00
2017-06-22T01:24:24.270Z,7.17
2017-06-22T01:26:51.790Z,7.80
2017-06-22T01:29:19.306Z,6.30
2017-06-22T01:31:46.834Z,7.97
2017-06-22T01:34:14.394Z,8.23
2017-06-22T01:36:41.910Z,7.33
2017-06-22T01:39:09.427Z,7.40
2017-06-22T01:41:36.922Z,7.20
2017-06-22T01:44:04.634Z,8.27
2017-06-22T01:46:32.190Z,8.40
2017-06-22T01:48:59.758Z,7.30
2017-06-22T01:51:27.414Z,8.07
2017-06-22T01:53:54.982Z,7.77
2017-06-22T01:56:22.533Z,7.90
2017-06-22T01:58:50.061Z,8.07
2017-06-22T02:01:17.655Z,8.33
2017-06-22T02:03:45.150Z,7.63
2017-06-22T02:06:12.688Z,9.00
2017-06-22T02:08:40.186Z,7.70
2017-06-22T02:11:07.675Z,7.93
2017-06-22T02:13:35.958Z,8.50
2017-06-22T02:16:03.630Z,8.37
2017-06-22T02:18:31.126Z,8.13
2017-06-22T02:20:58.645Z,7.60
2017-06-22T02:23:26.175Z,7.43
2017-06-22T02:25:53.770Z,7.37
2017-06-22T02:28:21.329Z,6.83
2017-06-22T02:30:48.998Z,8.40
2017-06-22T02:33:16.549Z,7.80
2017-06-22T02:35:44.118Z,7.70
2017-06-22T02:38:11.630Z,8.00
2017-06-22T02:40:39.131Z,8.20
2017-06-22T02:43:06.690Z,8.50
2017-06-22T02:45:34.254Z,8.07
2017-06-22T02:48:01.815Z,8.53
2017-06-22T02:50:29.474Z,7.83
2017-06-22T02:52:57.030Z,6.97
2017-06-22T02:55:24.589Z,7.63
2017-06-22T02:57:52.149Z,8.20
2017-06-22T03:00:19.714Z,7.30
2017-06-22T03:02:47.273Z,8.23
2017-06-22T03:05:14.762Z,7.97
2017-06-22T03:07:54.302Z,7.00
2017-06-22T03:10:21.790Z,8.43
2017-06-22T03:12:49.282Z,7.70
2017-06-22T03:15:17.651Z,8.37
2017-06-22T03:17:45.270Z,8.03
2017-06-22T03:20:12.882Z,7.60
2017-06-22T03:22:41.181Z,7.87
2017-06-22T03:25:08.698Z,7.67
2017-06-22T03:27:36.194Z,7.50
2017-06-22T03:30:03.726Z,8.03
2017-06-22T03:32:32.026Z,8.00
2017-06-22T03:34:59.585Z,7.73
2017-06-22T03:37:27.355Z,8.73
2017-06-22T03:39:54.905Z,7.83
2017-06-22T03:42:22.469Z,6.87
2017-06-22T03:44:50.133Z,8.50
2017-06-22T03:47:17.694Z,7.40
2017-06-22T03:49:45.266Z,7.97
2017-06-22T03:52:12.919Z,7.57
2017-06-22T03:54:40.406Z,6.60
2017-06-22T03:57:07.929Z,7.57
2017-06-22T03:59:35.595Z,7.40
2017-06-22T04:02:03.083Z,7.10
2017-06-22T04:04:30.632Z,8.03
2017-06-22T04:06:58.278Z,6.90
2017-06-22T04:09:25.773Z,7.93
2017-06-22T04:11:53.293Z,7.00
2017-06-22T04:14:20.861Z,7.23
2017-06-22T04:16:48.368Z,6.20
2017-06-22T04:19:15.872Z,8.43
2017-06-22T04:21:43.437Z,8.30
2017-06-22T04:24:10.990Z,7.97
2017-06-22T04:26:38.518Z,7.43
2017-06-22T04:29:06.109Z,8.23
2017-06-22T04:31:33.594Z,7.60
2017-06-22T04:34:01.335Z,7.47
2017-06-22T04:36:28.998Z,7.50
2017-06-22T04:38:56.562Z,7.20
2017-06-22T04:41:24.075Z,8.10
2017-06-22T04:43:51.574Z,8.17
2017-06-22T04:46:19.339Z,7.03
2017-06-22T04:48:46.833Z,7.83
2017-06-22T04:51:14.358Z,8.00
2017-06-22T04:53:42.022Z,8.17
2017-06-22T04:56:09.518Z,7.60
2017-06-22T04:58:37.038Z,8.30
2017-06-22T05:01:04.575Z,8.27
2017-06-22T05:03:32.889Z,8.00
2017-06-22T05:06:00.446Z,7.90
2017-06-22T05:08:27.999Z,7.40
2017-06-22T05:10:55.494Z,7.40
2017-06-22T05:13:23.114Z,7.70
2017-06-22T05:15:50.677Z,7.10
2017-06-22T05:18:18.170Z,7.40
2017-06-22T05:20:45.702Z,7.47
2017-06-22T05:23:13.263Z,7.27
2017-06-22T05:25:40.815Z,6.97
2017-06-22T05:28:08.382Z,5.93
2017-06-22T05:30:35.942Z,6.40
2017-06-22T05:33:03.502Z,6.70
2017-06-22T05:35:31.058Z,6.23
2017-06-22T05:37:58.613Z,7.33
2017-06-22T05:40:26.178Z,7.00
2017-06-22T05:42:53.698Z,6.20
2017-06-22T05:45:21.190Z,7.00
2017-06-22T05:47:49.673Z,6.77
2017-06-22T05:50:17.953Z,8.00
2017-06-22T05:52:45.513Z,6.97
2017-06-22T05:55:13.078Z,8.00
2017-06-22T05:57:40.638Z,7.27
2017-06-22T06:00:08.298Z,6.67
2017-06-22T06:02:35.791Z,6.67
2017-06-22T06:05:03.286Z,7.63
2017-06-22T06:07:30.873Z,7.37
2017-06-22T06:09:58.438Z,6.53
2017-06-22T06:12:25.993Z,6.70
2017-06-22T06:14:53.483Z,7.27
2017-06-22T06:17:21.015Z,6.93
2017-06-22T06:19:48.582Z,7.53
2017-06-22T06:22:16.155Z,7.20
2017-06-22T06:24:43.645Z,7.37
2017-06-22T06:27:11.250Z,7.30
2017-06-22T06:29:38.918Z,8.17
2017-06-22T06:32:06.475Z,7.07
2017-06-22T06:34:34.039Z,7.17
2017-06-22T06:37:01.615Z,7.27
2017-06-22T06:39:29.146Z,7.23
2017-06-22T06:41:57.534Z,7.30
2017-06-22T06:44:25.910Z,7.13
2017-06-22T06:46:54.195Z,8.10
2017-06-22T06:49:21.750Z,8.00
2017-06-22T06:51:49.314Z,7.60
2017-06-22T06:54:16.875Z,7.97
2017-06-22T06:56:44.639Z,8.23
2017-06-22T06:59:12.202Z,7.90
2017-06-22T07:01:39.686Z,7.60
2017-06-22T07:04:07.197Z,6.97
2017-06-22T07:06:35.462Z,8.30
2017-06-22T07:09:02.994Z,7.30
2017-06-22T07:11:30.532Z,7.80
2017-06-22T07:13:58.022Z,7.63
2017-06-22T07:16:25.735Z,7.53
2017-06-22T07:18:53.294Z,7.60
2017-06-22T07:21:20.787Z,7.30
2017-06-22T07:23:48.313Z,8.00
2017-06-22T07:26:15.803Z,7.63
2017-06-22T07:28:43.318Z,7.00
2017-06-22T07:31:11.609Z,7.10
2017-06-22T07:33:39.274Z,7.50
2017-06-22T07:36:06.834Z,7.20
2017-06-22T07:38:34.489Z,7.23
2017-06-22T07:41:02.786Z,8.20
2017-06-22T07:43:30.349Z,8.00
2017-06-22T07:45:57.894Z,7.80
2017-06-22T07:48:25.554Z,8.30
2017-06-22T07:50:53.066Z,6.97
2017-06-22T07:53:20.574Z,7.40
2017-06-22T07:55:48.410Z,7.10
2017-06-22T07:58:15.998Z,7.73
2017-06-22T08:00:43.562Z,7.70
2017-06-22T08:03:11.117Z,6.93
2017-06-22T08:05:38.677Z,7.53
2017-06-22T08:08:06.337Z,7.23
2017-06-22T08:10:33.850Z,8.47
2017-06-22T08:13:01.458Z,8.60
2017-06-22T08:15:29.033Z,8.23
2017-06-22T08:17:56.686Z,8.20
2017-06-22T08:20:24.254Z,7.30
2017-06-22T08:22:51.802Z,8.57
2017-06-22T08:25:19.471Z,7.93
2017-06-22T08:27:47.026Z,8.30
2017-06-22T08:30:14.593Z,9.27
2017-06-22T08:32:42.105Z,7.50
2017-06-22T08:35:09.611Z,8.10
2017-06-22T08:37:37.379Z,8.20
2017-06-22T08:40:04.870Z,9.53
2017-06-22T08:42:32.365Z,8.00
2017-06-22T08:45:00.659Z,9.30
2017-06-22T08:47:28.919Z,9.00
2017-06-22T08:49:57.328Z,8.27
2017-06-22T08:52:24.890Z,16.87
2017-06-22T08:54:52.455Z,23.17
2017-06-22T08:57:20.019Z,14.60
2017-06-22T08:59:47.774Z,13.90
2017-06-22T09:02:15.271Z,12.83
2017-06-22T09:04:42.774Z,12.90
2017-06-22T09:07:11.327Z,11.27
2017-06-22T09:09:38.927Z,11.30
2017-06-22T09:12:06.534Z,9.40
2017-06-22T09:14:34.390Z,7.90
2017-06-22T09:17:01.980Z,8.53
2017-06-22T09:19:29.558Z,9.20
2017-06-22T09:21:57.265Z,8.57
2017-06-22T09:24:25.015Z,8.20
2017-06-22T09:26:52.794Z,8.17
2017-06-22T09:29:20.470Z,8.30
2017-06-22T09:31:48.135Z,8.87
2017-06-22T09:34:15.763Z,9.23
2017-06-22T09:36:43.547Z,7.80
2017-06-22T09:39:11.213Z,8.20
2017-06-22T09:41:38.819Z,8.47
2017-06-22T09:44:07.193Z,9.10
2017-06-22T09:46:34.994Z,8.70
2017-06-22T09:49:02.582Z,27.83
2017-06-22T09:51:30.181Z,21.23
2017-06-22T09:53:57.787Z,23.53
2017-06-22T09:56:25.324Z,20.40
2017-06-22T09:58:53.034Z,15.73
2017-06-22T10:01:20.962Z,14.50
2017-06-22T10:03:48.757Z,12.53
2017-06-22T10:06:16.421Z,10.40
2017-06-22T10:08:44.058Z,9.13
2017-06-22T10:11:12.462Z,11.00
2017-06-22T10:13:40.346Z,11.37
2017-06-22T10:16:07.953Z,10.20
2017-06-22T10:18:36.388Z,10.23
2017-06-22T10:21:03.987Z,10.30
2017-06-22T10:23:32.370Z,10.67
2017-06-22T10:26:00.954Z,10.00
2017-06-22T10:28:29.238Z,10.40
2017-06-22T10:30:56.867Z,9.80
2017-06-22T10:33:24.599Z,9.33
2017-06-22T10:35:52.262Z,10.50
2017-06-22T10:38:19.872Z,10.37
2017-06-22T10:40:47.547Z,10.07
2017-06-22T10:43:15.927Z,10.93
2017-06-22T10:45:44.308Z,10.30
2017-06-22T10:48:12.861Z,11.23
2017-06-22T10:50:40.489Z,10.60
2017-06-22T10:53:08.460Z,10.10
2017-06-22T10:55:36.106Z,10.00
2017-06-22T10:58:03.695Z,12.17
2017-06-22T11:00:31.447Z,13.97
2017-06-22T11:02:59.111Z,14.53
2017-06-22T11:05:26.782Z,12.30
2017-06-22T11:07:54.339Z,10.90
2017-06-22T11:10:21.996Z,11.10
2017-06-22T11:12:49.669Z,11.20
2017-06-22T11:15:17.432Z,10.27
2017-06-22T11:17:45.048Z,10.40
2017-06-22T11:20:13.466Z,10.00
2017-06-22T11:22:41.230Z,10.20
2017-06-22T11:25:08.826Z,10.70
2017-06-22T11:27:36.407Z,11.23
2017-06-22T11:30:04.003Z,9.60
2017-06-22T11:32:31.647Z,10.80
2017-06-22T11:34:59.180Z,10.53
2017-06-22T11:37:26.699Z,10.47
2017-06-22T11:39:54.460Z,11.40
2017-06-22T11:42:22.249Z,11.80
2017-06-22T11:44:49.910Z,12.13
2017-06-22T11:47:17.538Z,11.97
2017-06-22T11:49:45.238Z,10.73
2017-06-22T11:52:12.864Z,11.70
2017-06-22T11:54:40.564Z,11.87
2017-06-22T11:57:08.255Z,12.10
2017-06-22T11:59:35.983Z,11.50
2017-06-22T12:02:04.447Z,12.00
2017-06-22T12:04:32.086Z,11.70
2017-06-22T12:06:59.819Z,11.20
2017-06-22T12:09:28.254Z,11.43
2017-06-22T12:11:55.952Z,10.60
2017-06-22T12:14:23.619Z,11.27
2017-06-22T12:16:51.210Z,11.10
2017-06-22T12:19:19.622Z,11.40
2017-06-22T12:21:47.386Z,12.90
2017-06-22T12:24:15.040Z,12.03
2017-06-22T12:26:42.731Z,12.47
2017-06-22T12:29:10.593Z,10.47
2017-06-22T12:31:38.189Z,11.20
2017-06-22T12:34:06.724Z,11.77
2017-06-22T12:36:34.356Z,11.60
2017-06-22T12:39:02.152Z,10.83
2017-06-22T12:41:29.829Z,11.00
2017-06-22T12:43:57.887Z,10.80
2017-06-22T12:46:25.568Z,9.83
2017-06-22T12:48:53.316Z,9.97
2017-06-22T12:51:21.080Z,11.33
2017-06-22T12:53:48.876Z,10.77
2017-06-22T12:56:16.609Z,10.57
2017-06-22T12:58:44.579Z,11.00
2017-06-22T13:01:13.367Z,10.60
2017-06-22T13:03:41.032Z,10.50
2017-06-22T13:06:08.795Z,11.10
2017-06-22T13:08:36.597Z,10.53
2017-06-22T13:11:04.275Z,10.23
2017-06-22T13:13:32.195Z,9.40
2017-06-22T13:16:00.162Z,10.00
2017-06-22T13:18:27.928Z,11.80
2017-06-22T13:20:55.694Z,10.23
2017-06-22T13:23:23.644Z,10.10
2017-06-22T13:25:51.386Z,10.80
2017-06-22T13:28:19.091Z,10.30
2017-06-22T13:30:46.958Z,11.50
2017-06-22T13:33:14.826Z,11.80
2017-06-22T13:35:42.844Z,11.50
2017-06-22T13:38:11.284Z,11.13
2017-06-22T13:40:38.965Z,11.27
2017-06-22T13:43:06.647Z,10.90
2017-06-22T13:45:35.054Z,10.90
2017-06-22T13:48:04.433Z,11.40
2017-06-22T13:50:32.908Z,10.23
2017-06-22T13:53:00.565Z,11.63
2017-06-22T13:55:28.202Z,11.70
2017-06-22T13:57:55.800Z,10.90
2017-06-22T14:00:24.264Z,11.07
2017-06-22T14:02:51.964Z,11.07
2017-06-22T14:05:19.603Z,10.90
2017-06-22T14:07:48.076Z,11.57
2017-06-22T14:10:15.706Z,11.73
2017-06-22T14:12:43.374Z,11.47
2017-06-22T14:15:11.004Z,11.30
2017-06-22T14:17:38.677Z,12.07
2017-06-22T14:20:06.457Z,11.37
2017-06-22T14:22:34.222Z,11.10
2017-06-22T14:25:02.088Z,11.33
2017-06-22T14:27:29.765Z,14.37
2017-06-22T14:29:57.518Z,11.33
2017-06-22T14:32:25.385Z,15.10
2017-06-22T14:34:53.253Z,11.30
2017-06-22T14:37:20.891Z,11.40
2017-06-22T14:39:48.493Z,11.97
2017-06-22T14:42:16.112Z,11.50
2017-06-22T14:44:43.719Z,11.53
2017-06-22T14:47:11.405Z,10.57
2017-06-22T14:49:38.992Z,10.40
2017-06-22T14:52:06.622Z,10.73
2017-06-22T14:54:34.409Z,11.17
2017-06-22T14:57:02.420Z,10.70
2017-06-22T14:59:30.183Z,10.43
2017-06-22T15:01:58.054Z,10.77
2017-06-22T15:04:25.614Z,11.90
2017-06-22T15:06:53.437Z,11.17
2017-06-22T15:09:21.169Z,11.03
2017-06-22T15:11:49.014Z,11.20
2017-06-22T15:14:16.879Z,11.13
2017-06-22T15:16:44.722Z,12.27
2017-06-22T15:19:12.408Z,11.73
2017-06-22T15:21:41.086Z,13.87
2017-06-22T15:24:08.962Z,11.40
2017-06-22T15:26:36.649Z,11.97
2017-06-22T15:29:04.288Z,12.57
2017-06-22T15:31:31.995Z,11.70
2017-06-22T15:33:59.818Z,20.03
2017-06-22T15:36:27.480Z,20.03
2017-06-22T15:38:55.347Z,19.23
2017-06-22T15:41:23.011Z,16.50
2017-06-22T15:43:50.712Z,15.47
2017-06-22T15:46:19.261Z,13.37
2017-06-22T15:48:46.921Z,15.80
2017-06-22T15:51:14.788Z,14.33
2017-06-22T15:53:42.585Z,13.93
2017-06-22T15:56:10.317Z,14.17
2017-06-22T15:58:38.097Z,13.67
2017-06-22T16:01:06.666Z,13.30
2017-06-22T16:03:34.620Z,11.90
2017-06-22T16:06:02.329Z,12.63
2017-06-22T16:08:30.812Z,13.20
2017-06-22T16:10:58.443Z,12.60
2017-06-22T16:13:26.209Z,13.33
2017-06-22T16:15:53.871Z,11.90
2017-06-22T16:18:21.533Z,12.73
2017-06-22T16:20:49.708Z,12.77
2017-06-22T16:23:17.678Z,12.30
2017-06-22T16:25:45.239Z,11.97
2017-06-22T16:28:12.935Z,11.63
2017-06-22T16:30:40.666Z,12.40
2017-06-22T16:33:08.242Z,11.80
2017-06-22T16:35:36.911Z,13.00
2017-06-22T16:38:04.779Z,10.90
2017-06-22T16:40:32.415Z,12.40
2017-06-22T16:43:00.310Z,11.90
2017-06-22T16:45:28.204Z,14.37
2017-06-22T16:47:55.840Z,15.47
2017-06-22T16:50:23.605Z,17.83
2017-06-22T16:52:51.478Z,13.50
2017-06-22T16:55:19.125Z,12.10
2017-06-22T16:57:46.824Z,13.20
2017-06-22T17:00:14.666Z,12.93
2017-06-22T17:02:42.320Z,11.40
2017-06-22T17:05:09.876Z,13.30
2017-06-22T17:07:37.383Z,11.13
2017-06-22T17:10:04.882Z,13.00
2017-06-22T17:12:32.468Z,13.37
2017-06-22T17:14:59.971Z,13.03
2017-06-22T17:17:27.482Z,13.17
2017-06-22T17:19:55.010Z,12.33
2017-06-22T17:22:23.411Z,11.60
2017-06-22T17:24:50.915Z,10.40
2017-06-22T17:27:18.451Z,12.43
2017-06-22T17:29:46.197Z,13.27
2017-06-22T17:32:13.764Z,11.40
2017-06-22T17:34:41.267Z,11.77
2017-06-22T17:37:08.787Z,9.50
2017-06-22T17:39:36.968Z,8.00
2017-06-22T17:42:04.480Z,7.60
2017-06-22T17:44:31.979Z,7.17
2017-06-22T17:46:59.746Z,6.60
2017-06-22T17:49:27.295Z,7.13
2017-06-22T17:51:54.787Z,6.70
2017-06-22T17:54:22.655Z,6.90
2017-06-22T17:56:50.318Z,6.77
2017-06-22T17:59:17.814Z,6.40
2017-06-22T18:01:45.435Z,7.37
2017-06-22T18:04:13.099Z,6.60
2017-06-22T18:06:40.659Z,7.70
2017-06-22T18:09:08.185Z,6.77
2017-06-22T18:11:35.710Z,6.93
2017-06-22T18:14:03.441Z,6.50
2017-06-22T18:16:30.947Z,7.43
2017-06-22T18:18:58.455Z,6.90
2017-06-22T18:21:25.975Z,7.77
2017-06-22T18:23:53.476Z,7.53
2017-06-22T18:26:21.002Z,7.13
2017-06-22T18:28:48.650Z,6.87
2017-06-22T18:31:16.160Z,8.00
2017-06-22T18:33:43.670Z,7.13
2017-06-22T18:36:11.212Z,7.17
2017-06-22T18:38:38.719Z,8.30
2017-06-22T18:41:06.211Z,7.40
2017-06-22T18:43:33.902Z,8.20
2017-06-22T18:46:01.406Z,8.37
2017-06-22T18:48:28.904Z,8.40
2017-06-22T18:50:56.483Z,8.23
2017-06-22T18:53:23.987Z,9.40
2017-06-22T18:55:51.499Z,9.07
2017-06-22T18:58:19.150Z,10.00
2017-06-22T19:00:46.777Z,11.20
2017-06-22T19:03:14.270Z,9.17
2017-06-22T19:05:41.774Z,11.00
2017-06-22T19:08:09.323Z,11.50
2017-06-22T19:10:36.927Z,11.57
2017-06-22T19:13:05.185Z,13.20
2017-06-22T19:15:32.787Z,12.07
2017-06-22T19:18:00.458Z,13.17
2017-06-22T19:20:27.958Z,13.27
2017-06-22T19:22:55.774Z,14.83
2017-06-22T19:25:23.269Z,16.13
2017-06-22T19:27:51.325Z,16.20
2017-06-22T19:30:18.866Z,14.70
2017-06-22T19:32:46.359Z,15.90
2017-06-22T19:35:14.090Z,16.50
2017-06-22T19:37:41.653Z,16.03
2017-06-22T19:40:09.209Z,14.93
2017-06-22T19:42:36.770Z,16.93
2017-06-22T19:45:04.338Z,15.00
2017-06-22T19:47:31.990Z,16.13
2017-06-22T19:49:59.554Z,17.43
2017-06-22T19:52:27.114Z,15.93
2017-06-22T19:54:54.773Z,17.57
2017-06-22T19:57:22.333Z,16.80
2017-06-22T19:59:49.830Z,17.43
2017-06-22T20:02:17.351Z,17.90
2017-06-22T20:04:45.014Z,18.50
2017-06-22T20:07:12.550Z,18.10
2017-06-22T20:09:40.135Z,17.90
2017-06-22T20:12:07.629Z,17.33
2017-06-22T20:14:35.357Z,17.93
2017-06-22T20:17:02.854Z,16.73
2017-06-22T20:19:30.478Z,18.73
2017-06-22T20:21:58.042Z,16.70
2017-06-22T20:24:25.598Z,16.30
2017-06-22T20:26:53.158Z,16.33
2017-06-22T20:29:20.718Z,15.97
2017-06-22T20:31:48.383Z,17.00
2017-06-22T20:34:15.943Z,16.40
2017-06-22T20:36:43.506Z,17.33
2017-06-22T20:39:11.210Z,16.53
2017-06-22T20:41:38.706Z,15.80
2017-06-22T20:44:07.003Z,15.77
2017-06-22T20:46:34.565Z,15.73
2017-06-22T20:49:02.122Z,15.80
2017-06-22T20:51:29.682Z,16.30
2017-06-22T20:53:57.179Z,17.67
2017-06-22T20:56:24.674Z,16.13
2017-06-22T20:58:53.037Z,15.50
2017-06-22T21:01:20.530Z,14.67
2017-06-22T21:03:48.036Z,17.27
2017-06-22T21:06:15.580Z,16.43
2017-06-22T21:08:43.118Z,16.27
2017-06-22T21:11:10.679Z,14.63
2017-06-22T21:13:38.233Z,17.33
2017-06-22T21:16:05.731Z,16.40
2017-06-22T21:18:33.265Z,16.40
2017-06-22T21:21:00.918Z,14.17
2017-06-22T21:23:28.415Z,15.90
2017-06-22T21:25:55.918Z,13.73
2017-06-22T21:28:24.318Z,14.07
2017-06-22T21:30:51.819Z,15.13
2017-06-22T21:33:19.435Z,14.43
2017-06-22T21:35:46.998Z,13.37
2017-06-22T21:38:14.554Z,11.70
2017-06-22T21:40:42.094Z,15.40
2017-06-22T21:43:10.361Z,15.47
2017-06-22T21:45:37.853Z,14.47
2017-06-22T21:48:05.406Z,15.80
2017-06-22T21:50:32.970Z,17.43
2017-06-22T21:53:00.530Z,17.40
2017-06-22T21:55:28.049Z,20.03
2017-06-22T21:57:55.651Z,20.80
2017-06-22T22:00:23.150Z,17.80
2017-06-22T22:02:50.773Z,14.90
2017-06-22T22:05:18.435Z,17.50
2017-06-22T22:07:46.093Z,15.27
2017-06-22T22:10:13.654Z,15.03
2017-06-22T22:12:41.214Z,13.43
2017-06-22T22:15:08.773Z,16.57
2017-06-22T22:17:36.338Z,14.97
2017-06-22T22:20:03.895Z,14.90
2017-06-22T22:22:31.453Z,14.63
2017-06-22T22:24:59.030Z,13.37
2017-06-22T22:27:26.554Z,12.60
2017-06-22T22:29:54.855Z,14.50
2017-06-22T22:32:22.418Z,13.60
2017-06-22T22:34:49.974Z,12.33
2017-06-22T22:37:17.510Z,13.40
2017-06-22T22:39:45.768Z,12.87
2017-06-22T22:42:13.262Z,13.30
2017-06-22T22:44:40.801Z,13.53
2017-06-22T22:47:09.105Z,12.10
2017-06-22T22:49:36.606Z,14.20
2017-06-22T22:52:05.043Z,14.37
2017-06-22T22:54:32.707Z,16.97
2017-06-22T22:57:00.270Z,16.00
2017-06-22T22:59:27.930Z,17.37
2017-06-22T23:01:55.489Z,16.97
2017-06-22T23:04:23.066Z,18.10
2017-06-22T23:06:50.709Z,18.13
2017-06-22T23:09:18.280Z,18.60
2017-06-22T23:11:45.778Z,18.87
2017-06-22T23:14:13.390Z,20.10
2017-06-22T23:16:40.951Z,22.13
2017-06-22T23:19:08.527Z,19.80
2017-06-22T23:21:36.141Z,20.70
2017-06-22T23:24:03.733Z,22.17
2017-06-22T23:26:31.313Z,22.80
2017-06-22T23:28:58.855Z,24.43
2017-06-22T23:31:26.355Z,24.27
2017-06-22T23:33:53.869Z,24.33
2017-06-22T23:36:21.433Z,26.00
2017-06-22T23:38:48.989Z,25.50
2017-06-22T23:41:16.493Z,27.93
2017-06-22T23:43:44.214Z,28.27
2017-06-22T23:46:11.710Z,26.20
2017-06-22T23:48:39.238Z,26.20
2017-06-22T23:51:06.762Z,25.47
2017-06-22T23:53:34.349Z,22.77
2017-06-22T23:56:02.015Z,22.53
2017-06-22T23:58:29.514Z,21.73
